sensor_id;sensor_type;location;lat;lon;timestamp;temperature;humidity
10692;DHT22;5396;50.950;6.988;2023-04-15T00:01:29;7.50;99.90
10692;DHT22;5396;50.950;6.988;2023-04-15T00:03:58;7.40;99.90
10692;DHT22;5396;50.950;6.988;2023-04-15T00:06:23;7.40;99.90
10692;DHT22;5396;50.950;6.988;2023-04-15T00:08:50;7.40;99.90
10692;DHT22;5396;50.950;6.988;2023-04-15T00:11:16;7.40;99.90
10692;DHT22;5396;50.950;6.988;2023-04-15T00:13:43;7.40;99.90
10692;DHT22;5396;50.950;6.988;2023-04-15T00:16:09;7.40;99.90
10692;DHT22;5396;50.950;6.988;2023-04-15T00:18:35;7.40;99.90
10692;DHT22;5396;50.950;6.988;2023-04-15T00:21:01;7.30;99.90
10692;DHT22;5396;50.950;6.988;2023-04-15T00:23:27;7.20;99.90
10692;DHT22;5396;50.950;6.988;2023-04-15T00:25:52;7.20;99.90
10692;DHT22;5396;50.950;6.988;2023-04-15T00:28:18;7.20;99.90
10692;DHT22;5396;50.950;6.988;2023-04-15T00:30:44;7.10;99.90
10692;DHT22;5396;50.950;6.988;2023-04-15T00:33:12;7.10;99.90
10692;DHT22;5396;50.950;6.988;2023-04-15T00:35:40;7.10;99.90
10692;DHT22;5396;50.950;6.988;2023-04-15T00:38:06;7.00;99.90
10692;DHT22;5396;50.950;6.988;2023-04-15T00:40:35;6.90;99.90
10692;DHT22;5396;50.950;6.988;2023-04-15T00:43:01;6.90;99.90
10692;DHT22;5396;50.950;6.988;2023-04-15T00:45:26;6.90;99.90
10692;DHT22;5396;50.950;6.988;2023-04-15T00:47:56;6.90;99.90
10692;DHT22;5396;50.950;6.988;2023-04-15T00:50:22;6.90;99.90
10692;DHT22;5396;50.950;6.988;2023-04-15T00:52:48;6.90;99.90
10692;DHT22;5396;50.950;6.988;2023-04-15T00:55:13;6.80;99.90
10692;DHT22;5396;50.950;6.988;2023-04-15T00:57:39;6.80;99.90
10692;DHT22;5396;50.950;6.988;2023-04-15T01:00:06;6.80;99.90
10692;DHT22;5396;50.950;6.988;2023-04-15T01:02:35;6.80;99.90
10692;DHT22;5396;50.950;6.988;2023-04-15T01:05:02;6.70;99.90
10692;DHT22;5396;50.950;6.988;2023-04-15T01:07:29;6.70;99.90
10692;DHT22;5396;50.950;6.988;2023-04-15T01:09:54;6.70;99.90
10692;DHT22;5396;50.950;6.988;2023-04-15T01:12:20;6.80;99.90
10692;DHT22;5396;50.950;6.988;2023-04-15T01:14:45;6.80;99.90
10692;DHT22;5396;50.950;6.988;2023-04-15T01:17:11;6.70;99.90
10692;DHT22;5396;50.950;6.988;2023-04-15T01:19:37;6.70;99.90
10692;DHT22;5396;50.950;6.988;2023-04-15T01:22:04;6.70;99.90
10692;DHT22;5396;50.950;6.988;2023-04-15T01:24:31;6.60;99.90
10692;DHT22;5396;50.950;6.988;2023-04-15T01:26:57;6.60;99.90
10692;DHT22;5396;50.950;6.988;2023-04-15T01:29:23;6.70;99.90
10692;DHT22;5396;50.950;6.988;2023-04-15T01:31:53;6.60;99.90
10692;DHT22;5396;50.950;6.988;2023-04-15T01:34:20;6.80;99.90
10692;DHT22;5396;50.950;6.988;2023-04-15T01:36:46;6.80;99.90
10692;DHT22;5396;50.950;6.988;2023-04-15T01:39:11;6.90;99.90
10692;DHT22;5396;50.950;6.988;2023-04-15T01:41:37;7.00;99.90
10692;DHT22;5396;50.950;6.988;2023-04-15T01:44:04;7.10;99.90
10692;DHT22;5396;50.950;6.988;2023-04-15T01:46:29;7.00;99.90
10692;DHT22;5396;50.950;6.988;2023-04-15T01:48:55;7.00;99.90
10692;DHT22;5396;50.950;6.988;2023-04-15T01:51:21;6.90;99.90
10692;DHT22;5396;50.950;6.988;2023-04-15T01:53:46;6.90;99.90
10692;DHT22;5396;50.950;6.988;2023-04-15T01:56:12;6.90;99.90
10692;DHT22;5396;50.950;6.988;2023-04-15T01:58:38;6.90;99.90
10692;DHT22;5396;50.950;6.988;2023-04-15T02:01:04;6.80;99.90
10692;DHT22;5396;50.950;6.988;2023-04-15T02:03:31;6.70;99.90
10692;DHT22;5396;50.950;6.988;2023-04-15T02:05:57;6.60;99.90
10692;DHT22;5396;50.950;6.988;2023-04-15T02:08:22;6.60;99.90
10692;DHT22;5396;50.950;6.988;2023-04-15T02:10:48;6.50;99.90
10692;DHT22;5396;50.950;6.988;2023-04-15T02:13:13;6.50;99.90
10692;DHT22;5396;50.950;6.988;2023-04-15T02:15:39;6.40;99.90
10692;DHT22;5396;50.950;6.988;2023-04-15T02:18:05;6.30;99.90
10692;DHT22;5396;50.950;6.988;2023-04-15T02:20:30;6.30;99.90
10692;DHT22;5396;50.950;6.988;2023-04-15T02:22:56;6.20;99.90
10692;DHT22;5396;50.950;6.988;2023-04-15T02:25:22;6.20;99.90
10692;DHT22;5396;50.950;6.988;2023-04-15T02:27:47;6.20;99.90
10692;DHT22;5396;50.950;6.988;2023-04-15T02:30:13;6.10;99.90
10692;DHT22;5396;50.950;6.988;2023-04-15T02:32:39;6.10;99.90
10692;DHT22;5396;50.950;6.988;2023-04-15T02:35:07;6.00;99.90
10692;DHT22;5396;50.950;6.988;2023-04-15T02:37:34;6.00;99.90
10692;DHT22;5396;50.950;6.988;2023-04-15T02:40:08;6.00;99.90
10692;DHT22;5396;50.950;6.988;2023-04-15T02:42:36;5.90;99.90
10692;DHT22;5396;50.950;6.988;2023-04-15T02:45:02;5.90;99.90
10692;DHT22;5396;50.950;6.988;2023-04-15T02:47:27;5.90;99.90
10692;DHT22;5396;50.950;6.988;2023-04-15T02:49:53;6.00;99.90
10692;DHT22;5396;50.950;6.988;2023-04-15T02:52:18;6.10;99.90
10692;DHT22;5396;50.950;6.988;2023-04-15T02:54:44;6.10;99.90
10692;DHT22;5396;50.950;6.988;2023-04-15T02:57:10;6.10;99.90
10692;DHT22;5396;50.950;6.988;2023-04-15T02:59:37;6.00;99.90
10692;DHT22;5396;50.950;6.988;2023-04-15T03:02:03;6.00;99.90
10692;DHT22;5396;50.950;6.988;2023-04-15T03:04:32;5.90;99.90
10692;DHT22;5396;50.950;6.988;2023-04-15T03:06:57;5.90;99.90
10692;DHT22;5396;50.950;6.988;2023-04-15T03:09:23;6.00;99.90
10692;DHT22;5396;50.950;6.988;2023-04-15T03:11:48;5.90;99.90
10692;DHT22;5396;50.950;6.988;2023-04-15T03:14:15;6.00;99.90
10692;DHT22;5396;50.950;6.988;2023-04-15T03:16:41;6.00;99.90
10692;DHT22;5396;50.950;6.988;2023-04-15T03:19:06;6.00;99.90
10692;DHT22;5396;50.950;6.988;2023-04-15T03:21:32;6.00;99.90
10692;DHT22;5396;50.950;6.988;2023-04-15T03:23:57;6.00;99.90
10692;DHT22;5396;50.950;6.988;2023-04-15T03:26:32;6.10;99.90
10692;DHT22;5396;50.950;6.988;2023-04-15T03:28:58;6.10;99.90
10692;DHT22;5396;50.950;6.988;2023-04-15T03:31:23;6.10;99.90
10692;DHT22;5396;50.950;6.988;2023-04-15T03:33:49;6.10;99.90
10692;DHT22;5396;50.950;6.988;2023-04-15T03:36:15;5.90;99.90
10692;DHT22;5396;50.950;6.988;2023-04-15T03:38:41;5.80;99.90
10692;DHT22;5396;50.950;6.988;2023-04-15T03:41:07;5.80;99.90
10692;DHT22;5396;50.950;6.988;2023-04-15T03:43:33;5.70;99.90
10692;DHT22;5396;50.950;6.988;2023-04-15T03:45:59;5.60;99.90
10692;DHT22;5396;50.950;6.988;2023-04-15T03:48:25;5.50;99.90
10692;DHT22;5396;50.950;6.988;2023-04-15T03:50:50;5.50;99.90
10692;DHT22;5396;50.950;6.988;2023-04-15T03:53:16;5.40;99.90
10692;DHT22;5396;50.950;6.988;2023-04-15T03:55:41;5.40;99.90
10692;DHT22;5396;50.950;6.988;2023-04-15T03:58:07;5.40;99.90
10692;DHT22;5396;50.950;6.988;2023-04-15T04:00:37;5.30;99.90
10692;DHT22;5396;50.950;6.988;2023-04-15T04:03:03;5.20;99.90
10692;DHT22;5396;50.950;6.988;2023-04-15T04:05:28;5.20;99.90
10692;DHT22;5396;50.950;6.988;2023-04-15T04:07:54;5.10;99.90
10692;DHT22;5396;50.950;6.988;2023-04-15T04:10:20;5.10;99.90
10692;DHT22;5396;50.950;6.988;2023-04-15T04:12:45;5.10;99.90
10692;DHT22;5396;50.950;6.988;2023-04-15T04:15:11;5.00;99.90
10692;DHT22;5396;50.950;6.988;2023-04-15T04:17:37;5.00;99.90
10692;DHT22;5396;50.950;6.988;2023-04-15T04:20:02;4.90;99.90
10692;DHT22;5396;50.950;6.988;2023-04-15T04:22:28;4.90;99.90
10692;DHT22;5396;50.950;6.988;2023-04-15T04:24:53;4.90;99.90
10692;DHT22;5396;50.950;6.988;2023-04-15T04:27:19;4.90;99.90
10692;DHT22;5396;50.950;6.988;2023-04-15T04:29:45;4.90;99.90
10692;DHT22;5396;50.950;6.988;2023-04-15T04:32:12;5.00;99.90
10692;DHT22;5396;50.950;6.988;2023-04-15T04:34:37;5.00;99.90
10692;DHT22;5396;50.950;6.988;2023-04-15T04:37:03;5.00;99.90
10692;DHT22;5396;50.950;6.988;2023-04-15T04:39:28;5.00;99.90
10692;DHT22;5396;50.950;6.988;2023-04-15T04:41:54;5.00;99.90
10692;DHT22;5396;50.950;6.988;2023-04-15T04:44:20;5.00;99.90
10692;DHT22;5396;50.950;6.988;2023-04-15T04:46:49;5.00;99.90
10692;DHT22;5396;50.950;6.988;2023-04-15T04:49:15;4.90;99.90
10692;DHT22;5396;50.950;6.988;2023-04-15T04:51:40;4.90;99.90
10692;DHT22;5396;50.950;6.988;2023-04-15T04:54:06;4.90;99.90
10692;DHT22;5396;50.950;6.988;2023-04-15T04:56:32;4.90;99.90
10692;DHT22;5396;50.950;6.988;2023-04-15T04:58:59;5.00;99.90
10692;DHT22;5396;50.950;6.988;2023-04-15T05:01:24;5.00;99.90
10692;DHT22;5396;50.950;6.988;2023-04-15T05:03:51;4.90;99.90
10692;DHT22;5396;50.950;6.988;2023-04-15T05:06:17;4.90;99.90
10692;DHT22;5396;50.950;6.988;2023-04-15T05:08:43;5.00;99.90
10692;DHT22;5396;50.950;6.988;2023-04-15T05:11:08;5.00;99.90
10692;DHT22;5396;50.950;6.988;2023-04-15T05:13:34;5.10;99.90
10692;DHT22;5396;50.950;6.988;2023-04-15T05:16:06;5.30;99.90
10692;DHT22;5396;50.950;6.988;2023-04-15T05:18:32;5.50;99.90
10692;DHT22;5396;50.950;6.988;2023-04-15T05:20:58;5.60;99.90
10692;DHT22;5396;50.950;6.988;2023-04-15T05:23:23;5.70;99.90
10692;DHT22;5396;50.950;6.988;2023-04-15T05:25:49;5.70;99.90
10692;DHT22;5396;50.950;6.988;2023-04-15T05:28:15;5.60;99.90
10692;DHT22;5396;50.950;6.988;2023-04-15T05:30:41;5.70;99.90
10692;DHT22;5396;50.950;6.988;2023-04-15T05:33:07;5.70;99.90
10692;DHT22;5396;50.950;6.988;2023-04-15T05:35:32;5.80;99.90
10692;DHT22;5396;50.950;6.988;2023-04-15T05:37:58;5.80;99.90
10692;DHT22;5396;50.950;6.988;2023-04-15T05:40:24;5.80;99.90
10692;DHT22;5396;50.950;6.988;2023-04-15T05:42:49;5.90;99.90
10692;DHT22;5396;50.950;6.988;2023-04-15T05:45:15;5.90;99.90
10692;DHT22;5396;50.950;6.988;2023-04-15T05:47:41;6.00;99.90
10692;DHT22;5396;50.950;6.988;2023-04-15T05:50:07;6.10;99.90
10692;DHT22;5396;50.950;6.988;2023-04-15T05:52:32;6.20;99.90
10692;DHT22;5396;50.950;6.988;2023-04-15T05:54:58;6.30;99.90
10692;DHT22;5396;50.950;6.988;2023-04-15T05:57:23;6.40;99.90
10692;DHT22;5396;50.950;6.988;2023-04-15T05:59:49;6.60;99.90
10692;DHT22;5396;50.950;6.988;2023-04-15T06:02:17;6.70;99.90
10692;DHT22;5396;50.950;6.988;2023-04-15T06:04:42;6.80;99.90
10692;DHT22;5396;50.950;6.988;2023-04-15T06:07:08;7.00;99.90
10692;DHT22;5396;50.950;6.988;2023-04-15T06:09:34;7.20;99.90
10692;DHT22;5396;50.950;6.988;2023-04-15T06:12:00;7.30;99.90
10692;DHT22;5396;50.950;6.988;2023-04-15T06:14:26;7.40;99.90
10692;DHT22;5396;50.950;6.988;2023-04-15T06:16:52;7.50;99.90
10692;DHT22;5396;50.950;6.988;2023-04-15T06:19:17;7.60;99.90
10692;DHT22;5396;50.950;6.988;2023-04-15T06:21:44;7.70;99.90
10692;DHT22;5396;50.950;6.988;2023-04-15T06:24:10;7.80;99.90
10692;DHT22;5396;50.950;6.988;2023-04-15T06:26:36;7.90;99.90
10692;DHT22;5396;50.950;6.988;2023-04-15T06:29:01;8.10;99.90
10692;DHT22;5396;50.950;6.988;2023-04-15T06:31:27;8.20;99.90
10692;DHT22;5396;50.950;6.988;2023-04-15T06:33:52;8.30;99.90
10692;DHT22;5396;50.950;6.988;2023-04-15T06:36:18;8.40;99.90
10692;DHT22;5396;50.950;6.988;2023-04-15T06:38:44;8.50;99.90
10692;DHT22;5396;50.950;6.988;2023-04-15T06:41:09;8.70;99.90
10692;DHT22;5396;50.950;6.988;2023-04-15T06:43:35;8.80;99.90
10692;DHT22;5396;50.950;6.988;2023-04-15T06:46:01;9.00;99.90
10692;DHT22;5396;50.950;6.988;2023-04-15T06:48:26;9.10;99.90
10692;DHT22;5396;50.950;6.988;2023-04-15T06:50:52;9.40;99.90
10692;DHT22;5396;50.950;6.988;2023-04-15T06:53:18;9.50;99.90
10692;DHT22;5396;50.950;6.988;2023-04-15T06:55:43;9.60;99.90
10692;DHT22;5396;50.950;6.988;2023-04-15T06:58:09;9.60;99.90
10692;DHT22;5396;50.950;6.988;2023-04-15T07:00:35;9.70;99.90
10692;DHT22;5396;50.950;6.988;2023-04-15T07:03:03;9.80;99.90
10692;DHT22;5396;50.950;6.988;2023-04-15T07:05:29;9.90;99.90
10692;DHT22;5396;50.950;6.988;2023-04-15T07:07:56;10.10;99.90
10692;DHT22;5396;50.950;6.988;2023-04-15T07:10:22;10.10;99.90
10692;DHT22;5396;50.950;6.988;2023-04-15T07:12:48;10.20;99.90
10692;DHT22;5396;50.950;6.988;2023-04-15T07:15:15;10.30;99.90
10692;DHT22;5396;50.950;6.988;2023-04-15T07:17:41;10.50;99.90
10692;DHT22;5396;50.950;6.988;2023-04-15T07:20:07;10.50;99.90
10692;DHT22;5396;50.950;6.988;2023-04-15T07:22:33;10.50;99.90
10692;DHT22;5396;50.950;6.988;2023-04-15T07:24:59;10.60;99.90
10692;DHT22;5396;50.950;6.988;2023-04-15T07:27:24;10.70;99.90
10692;DHT22;5396;50.950;6.988;2023-04-15T07:29:50;10.90;99.90
10692;DHT22;5396;50.950;6.988;2023-04-15T07:32:16;10.90;99.90
10692;DHT22;5396;50.950;6.988;2023-04-15T07:34:42;11.10;99.90
10692;DHT22;5396;50.950;6.988;2023-04-15T07:37:08;11.30;99.90
10692;DHT22;5396;50.950;6.988;2023-04-15T07:39:34;11.50;99.90
10692;DHT22;5396;50.950;6.988;2023-04-15T07:42:00;11.50;99.90
10692;DHT22;5396;50.950;6.988;2023-04-15T07:44:26;11.60;99.90
10692;DHT22;5396;50.950;6.988;2023-04-15T07:46:52;11.70;99.90
10692;DHT22;5396;50.950;6.988;2023-04-15T07:49:18;11.80;99.90
10692;DHT22;5396;50.950;6.988;2023-04-15T07:51:46;11.80;99.90
10692;DHT22;5396;50.950;6.988;2023-04-15T07:54:12;11.90;99.90
10692;DHT22;5396;50.950;6.988;2023-04-15T07:56:38;11.90;99.90
10692;DHT22;5396;50.950;6.988;2023-04-15T07:59:03;12.00;99.90
10692;DHT22;5396;50.950;6.988;2023-04-15T08:01:30;12.10;99.90
10692;DHT22;5396;50.950;6.988;2023-04-15T08:03:57;12.20;99.90
10692;DHT22;5396;50.950;6.988;2023-04-15T08:06:23;12.40;99.90
10692;DHT22;5396;50.950;6.988;2023-04-15T08:08:49;12.40;99.90
10692;DHT22;5396;50.950;6.988;2023-04-15T08:11:15;12.50;99.90
10692;DHT22;5396;50.950;6.988;2023-04-15T08:13:41;12.50;99.90
10692;DHT22;5396;50.950;6.988;2023-04-15T08:16:16;12.60;99.90
10692;DHT22;5396;50.950;6.988;2023-04-15T08:18:46;12.60;99.90
10692;DHT22;5396;50.950;6.988;2023-04-15T08:21:12;12.60;99.90
10692;DHT22;5396;50.950;6.988;2023-04-15T08:23:38;12.60;99.90
10692;DHT22;5396;50.950;6.988;2023-04-15T08:26:04;12.50;99.90
10692;DHT22;5396;50.950;6.988;2023-04-15T08:28:29;12.60;99.90
10692;DHT22;5396;50.950;6.988;2023-04-15T08:30:56;12.60;99.90
10692;DHT22;5396;50.950;6.988;2023-04-15T08:33:21;12.60;99.90
10692;DHT22;5396;50.950;6.988;2023-04-15T08:35:47;12.70;99.90
10692;DHT22;5396;50.950;6.988;2023-04-15T08:38:13;12.70;99.90
10692;DHT22;5396;50.950;6.988;2023-04-15T08:40:44;12.80;99.90
10692;DHT22;5396;50.950;6.988;2023-04-15T08:43:14;12.70;99.90
10692;DHT22;5396;50.950;6.988;2023-04-15T08:45:43;12.60;99.90
10692;DHT22;5396;50.950;6.988;2023-04-15T08:48:16;12.60;99.90
10692;DHT22;5396;50.950;6.988;2023-04-15T08:50:42;12.70;99.90
10692;DHT22;5396;50.950;6.988;2023-04-15T08:53:09;12.70;99.90
10692;DHT22;5396;50.950;6.988;2023-04-15T08:55:37;12.60;99.90
10692;DHT22;5396;50.950;6.988;2023-04-15T08:58:04;12.60;99.90
10692;DHT22;5396;50.950;6.988;2023-04-15T09:00:31;12.60;99.90
10692;DHT22;5396;50.950;6.988;2023-04-15T09:02:58;12.50;99.90
10692;DHT22;5396;50.950;6.988;2023-04-15T09:05:23;12.60;99.90
10692;DHT22;5396;50.950;6.988;2023-04-15T09:07:52;12.60;99.90
10692;DHT22;5396;50.950;6.988;2023-04-15T09:10:18;12.50;99.90
10692;DHT22;5396;50.950;6.988;2023-04-15T09:12:43;12.40;99.90
10692;DHT22;5396;50.950;6.988;2023-04-15T09:15:10;12.50;99.90
10692;DHT22;5396;50.950;6.988;2023-04-15T09:17:42;12.70;99.90
10692;DHT22;5396;50.950;6.988;2023-04-15T09:20:09;12.80;99.90
10692;DHT22;5396;50.950;6.988;2023-04-15T09:22:36;12.90;99.90
10692;DHT22;5396;50.950;6.988;2023-04-15T09:27:56;12.90;99.90
10692;DHT22;5396;50.950;6.988;2023-04-15T09:30:22;12.90;99.90
10692;DHT22;5396;50.950;6.988;2023-04-15T09:32:53;13.00;99.90
10692;DHT22;5396;50.950;6.988;2023-04-15T09:35:20;13.20;99.90
10692;DHT22;5396;50.950;6.988;2023-04-15T09:37:46;13.30;99.90
10692;DHT22;5396;50.950;6.988;2023-04-15T09:40:11;13.40;99.90
10692;DHT22;5396;50.950;6.988;2023-04-15T09:42:54;13.40;99.90
10692;DHT22;5396;50.950;6.988;2023-04-15T09:45:20;13.30;99.90
10692;DHT22;5396;50.950;6.988;2023-04-15T09:47:46;13.30;99.90
10692;DHT22;5396;50.950;6.988;2023-04-15T09:50:12;13.40;99.90
10692;DHT22;5396;50.950;6.988;2023-04-15T09:52:42;13.30;99.90
10692;DHT22;5396;50.950;6.988;2023-04-15T09:55:09;13.30;99.90
10692;DHT22;5396;50.950;6.988;2023-04-15T09:57:35;13.40;99.90
10692;DHT22;5396;50.950;6.988;2023-04-15T10:00:05;13.60;99.90
10692;DHT22;5396;50.950;6.988;2023-04-15T10:02:33;13.60;99.90
10692;DHT22;5396;50.950;6.988;2023-04-15T10:05:01;13.70;99.90
10692;DHT22;5396;50.950;6.988;2023-04-15T10:07:27;13.50;99.90
10692;DHT22;5396;50.950;6.988;2023-04-15T10:09:54;13.40;99.90
10692;DHT22;5396;50.950;6.988;2023-04-15T10:12:21;13.30;99.90
10692;DHT22;5396;50.950;6.988;2023-04-15T10:14:58;13.30;99.90
10692;DHT22;5396;50.950;6.988;2023-04-15T10:17:26;13.30;99.90
10692;DHT22;5396;50.950;6.988;2023-04-15T10:19:53;13.30;99.90
10692;DHT22;5396;50.950;6.988;2023-04-15T10:22:19;13.40;99.90
10692;DHT22;5396;50.950;6.988;2023-04-15T10:24:46;13.40;99.90
10692;DHT22;5396;50.950;6.988;2023-04-15T10:27:13;13.60;99.90
10692;DHT22;5396;50.950;6.988;2023-04-15T10:29:39;13.70;99.90
10692;DHT22;5396;50.950;6.988;2023-04-15T10:32:05;13.80;99.90
10692;DHT22;5396;50.950;6.988;2023-04-15T10:34:31;13.60;99.90
10692;DHT22;5396;50.950;6.988;2023-04-15T10:37:00;13.50;99.90
10692;DHT22;5396;50.950;6.988;2023-04-15T10:42:07;13.30;99.90
10692;DHT22;5396;50.950;6.988;2023-04-15T10:44:35;13.30;99.90
10692;DHT22;5396;50.950;6.988;2023-04-15T10:47:13;13.50;99.90
10692;DHT22;5396;50.950;6.988;2023-04-15T10:49:50;13.80;99.90
10692;DHT22;5396;50.950;6.988;2023-04-15T10:52:21;13.90;99.90
10692;DHT22;5396;50.950;6.988;2023-04-15T10:54:47;14.00;99.90
10692;DHT22;5396;50.950;6.988;2023-04-15T10:57:15;14.20;99.90
10692;DHT22;5396;50.950;6.988;2023-04-15T11:00:03;14.00;99.90
10692;DHT22;5396;50.950;6.988;2023-04-15T11:02:38;13.90;99.90
10692;DHT22;5396;50.950;6.988;2023-04-15T11:05:04;13.90;99.90
10692;DHT22;5396;50.950;6.988;2023-04-15T11:07:47;13.90;99.90
10692;DHT22;5396;50.950;6.988;2023-04-15T11:12:39;14.00;99.90
10692;DHT22;5396;50.950;6.988;2023-04-15T11:15:28;14.10;99.90
10692;DHT22;5396;50.950;6.988;2023-04-15T11:17:56;14.20;99.90
10692;DHT22;5396;50.950;6.988;2023-04-15T11:20:23;14.30;99.90
10692;DHT22;5396;50.950;6.988;2023-04-15T11:22:53;14.30;99.90
10692;DHT22;5396;50.950;6.988;2023-04-15T11:25:27;14.20;99.90
10692;DHT22;5396;50.950;6.988;2023-04-15T11:27:53;14.00;99.90
10692;DHT22;5396;50.950;6.988;2023-04-15T11:30:24;13.80;99.90
10692;DHT22;5396;50.950;6.988;2023-04-15T11:32:51;13.50;99.90
10692;DHT22;5396;50.950;6.988;2023-04-15T11:35:18;13.40;99.90
10692;DHT22;5396;50.950;6.988;2023-04-15T11:37:44;13.60;99.90
10692;DHT22;5396;50.950;6.988;2023-04-15T11:40:10;13.70;99.90
10692;DHT22;5396;50.950;6.988;2023-04-15T11:42:37;13.90;99.90
10692;DHT22;5396;50.950;6.988;2023-04-15T11:45:13;14.10;99.90
10692;DHT22;5396;50.950;6.988;2023-04-15T11:47:41;14.20;99.90
10692;DHT22;5396;50.950;6.988;2023-04-15T11:50:33;14.10;99.90
10692;DHT22;5396;50.950;6.988;2023-04-15T11:53:01;14.10;99.90
10692;DHT22;5396;50.950;6.988;2023-04-15T11:55:28;14.00;99.90
10692;DHT22;5396;50.950;6.988;2023-04-15T12:00:39;14.00;99.90
10692;DHT22;5396;50.950;6.988;2023-04-15T12:03:20;14.00;99.90
10692;DHT22;5396;50.950;6.988;2023-04-15T12:06:07;13.90;99.90
10692;DHT22;5396;50.950;6.988;2023-04-15T12:11:20;13.30;99.90
10692;DHT22;5396;50.950;6.988;2023-04-15T12:16:23;13.20;99.90
10692;DHT22;5396;50.950;6.988;2023-04-15T12:18:53;13.10;99.90
10692;DHT22;5396;50.950;6.988;2023-04-15T12:21:25;13.00;99.90
10692;DHT22;5396;50.950;6.988;2023-04-15T12:23:53;12.70;99.90
10692;DHT22;5396;50.950;6.988;2023-04-15T12:26:44;12.60;99.90
10692;DHT22;5396;50.950;6.988;2023-04-15T12:29:11;12.50;99.90
10692;DHT22;5396;50.950;6.988;2023-04-15T12:31:46;12.40;99.90
10692;DHT22;5396;50.950;6.988;2023-04-15T12:34:13;12.40;99.90
10692;DHT22;5396;50.950;6.988;2023-04-15T12:36:39;12.50;99.90
10692;DHT22;5396;50.950;6.988;2023-04-15T12:39:05;12.50;99.90
10692;DHT22;5396;50.950;6.988;2023-04-15T12:41:31;12.40;99.90
10692;DHT22;5396;50.950;6.988;2023-04-15T12:43:57;12.30;99.90
10692;DHT22;5396;50.950;6.988;2023-04-15T12:46:23;12.20;99.90
10692;DHT22;5396;50.950;6.988;2023-04-15T12:48:49;12.20;99.90
10692;DHT22;5396;50.950;6.988;2023-04-15T12:51:16;12.10;99.90
10692;DHT22;5396;50.950;6.988;2023-04-15T12:53:42;12.10;99.90
10692;DHT22;5396;50.950;6.988;2023-04-15T12:56:07;12.00;99.90
10692;DHT22;5396;50.950;6.988;2023-04-15T12:58:33;12.10;99.90
10692;DHT22;5396;50.950;6.988;2023-04-15T13:00:58;12.10;99.90
10692;DHT22;5396;50.950;6.988;2023-04-15T13:03:24;12.00;99.90
10692;DHT22;5396;50.950;6.988;2023-04-15T13:05:51;12.00;99.90
10692;DHT22;5396;50.950;6.988;2023-04-15T13:08:17;11.90;99.90
10692;DHT22;5396;50.950;6.988;2023-04-15T13:10:42;11.90;99.90
10692;DHT22;5396;50.950;6.988;2023-04-15T13:13:08;11.80;99.90
10692;DHT22;5396;50.950;6.988;2023-04-15T13:15:34;11.80;99.90
10692;DHT22;5396;50.950;6.988;2023-04-15T13:18:00;11.70;99.90
10692;DHT22;5396;50.950;6.988;2023-04-15T13:20:26;11.70;99.90
10692;DHT22;5396;50.950;6.988;2023-04-15T13:22:52;11.60;99.90
10692;DHT22;5396;50.950;6.988;2023-04-15T13:25:18;11.60;99.90
10692;DHT22;5396;50.950;6.988;2023-04-15T13:27:44;11.70;99.90
10692;DHT22;5396;50.950;6.988;2023-04-15T13:30:10;11.60;99.90
10692;DHT22;5396;50.950;6.988;2023-04-15T13:32:35;11.70;99.90
10692;DHT22;5396;50.950;6.988;2023-04-15T13:35:01;11.70;99.90
10692;DHT22;5396;50.950;6.988;2023-04-15T13:37:27;11.70;99.90
10692;DHT22;5396;50.950;6.988;2023-04-15T13:39:54;11.70;99.90
10692;DHT22;5396;50.950;6.988;2023-04-15T13:42:20;11.70;99.90
10692;DHT22;5396;50.950;6.988;2023-04-15T13:44:46;11.60;99.90
10692;DHT22;5396;50.950;6.988;2023-04-15T13:47:12;11.50;99.90
10692;DHT22;5396;50.950;6.988;2023-04-15T13:49:39;11.40;99.90
10692;DHT22;5396;50.950;6.988;2023-04-15T13:52:05;11.40;99.90
10692;DHT22;5396;50.950;6.988;2023-04-15T13:54:30;11.30;99.90
10692;DHT22;5396;50.950;6.988;2023-04-15T13:56:56;11.30;99.90
10692;DHT22;5396;50.950;6.988;2023-04-15T13:59:22;11.30;99.90
10692;DHT22;5396;50.950;6.988;2023-04-15T14:01:48;11.40;99.90
10692;DHT22;5396;50.950;6.988;2023-04-15T14:04:14;11.40;99.90
10692;DHT22;5396;50.950;6.988;2023-04-15T14:06:39;11.50;99.90
10692;DHT22;5396;50.950;6.988;2023-04-15T14:09:05;11.40;99.90
10692;DHT22;5396;50.950;6.988;2023-04-15T14:11:31;11.40;99.90
10692;DHT22;5396;50.950;6.988;2023-04-15T14:13:56;11.40;99.90
10692;DHT22;5396;50.950;6.988;2023-04-15T14:16:22;11.40;99.90
10692;DHT22;5396;50.950;6.988;2023-04-15T14:18:47;11.70;99.90
10692;DHT22;5396;50.950;6.988;2023-04-15T14:21:13;11.80;99.90
10692;DHT22;5396;50.950;6.988;2023-04-15T14:23:39;11.90;99.90
10692;DHT22;5396;50.950;6.988;2023-04-15T14:26:05;12.00;99.90
10692;DHT22;5396;50.950;6.988;2023-04-15T14:28:30;11.90;99.90
10692;DHT22;5396;50.950;6.988;2023-04-15T14:30:56;11.80;99.90
10692;DHT22;5396;50.950;6.988;2023-04-15T14:33:22;11.80;99.90
10692;DHT22;5396;50.950;6.988;2023-04-15T14:35:48;12.00;99.90
10692;DHT22;5396;50.950;6.988;2023-04-15T14:38:14;12.20;99.90
10692;DHT22;5396;50.950;6.988;2023-04-15T14:40:40;12.20;99.90
10692;DHT22;5396;50.950;6.988;2023-04-15T14:43:06;12.20;99.90
10692;DHT22;5396;50.950;6.988;2023-04-15T14:45:31;12.30;99.90
10692;DHT22;5396;50.950;6.988;2023-04-15T14:47:58;12.20;99.90
10692;DHT22;5396;50.950;6.988;2023-04-15T14:50:23;12.00;99.90
10692;DHT22;5396;50.950;6.988;2023-04-15T14:52:49;11.80;99.90
10692;DHT22;5396;50.950;6.988;2023-04-15T14:55:15;11.60;99.90
10692;DHT22;5396;50.950;6.988;2023-04-15T14:57:44;11.40;99.90
10692;DHT22;5396;50.950;6.988;2023-04-15T15:00:10;11.40;99.90
10692;DHT22;5396;50.950;6.988;2023-04-15T15:02:37;11.40;99.90
10692;DHT22;5396;50.950;6.988;2023-04-15T15:05:03;11.10;99.90
10692;DHT22;5396;50.950;6.988;2023-04-15T15:07:28;11.10;99.90
10692;DHT22;5396;50.950;6.988;2023-04-15T15:09:54;11.10;99.90
10692;DHT22;5396;50.950;6.988;2023-04-15T15:12:21;11.10;99.90
10692;DHT22;5396;50.950;6.988;2023-04-15T15:14:49;11.10;99.90
10692;DHT22;5396;50.950;6.988;2023-04-15T15:17:15;11.00;99.90
10692;DHT22;5396;50.950;6.988;2023-04-15T15:19:40;10.90;99.90
10692;DHT22;5396;50.950;6.988;2023-04-15T15:22:14;10.90;99.90
10692;DHT22;5396;50.950;6.988;2023-04-15T15:24:50;10.90;99.90
10692;DHT22;5396;50.950;6.988;2023-04-15T15:27:16;10.90;99.90
10692;DHT22;5396;50.950;6.988;2023-04-15T15:29:42;10.90;99.90
10692;DHT22;5396;50.950;6.988;2023-04-15T15:32:07;10.90;99.90
10692;DHT22;5396;50.950;6.988;2023-04-15T15:34:33;10.90;99.90
10692;DHT22;5396;50.950;6.988;2023-04-15T15:36:59;11.00;99.90
10692;DHT22;5396;50.950;6.988;2023-04-15T15:39:25;11.00;99.90
10692;DHT22;5396;50.950;6.988;2023-04-15T15:41:51;10.90;99.90
10692;DHT22;5396;50.950;6.988;2023-04-15T15:44:16;10.70;99.90
10692;DHT22;5396;50.950;6.988;2023-04-15T15:46:42;10.60;99.90
10692;DHT22;5396;50.950;6.988;2023-04-15T15:49:07;10.60;99.90
10692;DHT22;5396;50.950;6.988;2023-04-15T15:51:33;10.50;99.90
10692;DHT22;5396;50.950;6.988;2023-04-15T15:53:59;10.50;99.90
10692;DHT22;5396;50.950;6.988;2023-04-15T15:56:25;10.40;99.90
10692;DHT22;5396;50.950;6.988;2023-04-15T15:58:51;10.40;99.90
10692;DHT22;5396;50.950;6.988;2023-04-15T16:01:16;10.30;99.90
10692;DHT22;5396;50.950;6.988;2023-04-15T16:03:42;10.30;99.90
10692;DHT22;5396;50.950;6.988;2023-04-15T16:06:08;10.20;99.90